createdAt,value
2023-02-03T00:02:06.931Z,99.04
2023-02-03T00:04:33.772Z,99.24
2023-02-03T00:07:00.676Z,99.29
2023-02-03T00:09:27.769Z,98.88
2023-02-03T00:11:54.959Z,98.82
2023-02-03T00:14:21.813Z,98.71
2023-02-03T00:16:48.910Z,98.85
2023-02-03T00:19:17.508Z,98.85
2023-02-03T00:21:44.792Z,98.81
2023-02-03T00:24:11.907Z,98.80
2023-02-03T00:26:43.608Z,98.67
2023-02-03T00:29:11.029Z,99.04
2023-02-03T00:31:38.476Z,98.95
2023-02-03T00:34:05.437Z,98.93
2023-02-03T00:36:32.775Z,98.82
2023-02-03T00:39:01.252Z,98.98
2023-02-03T00:41:31.427Z,98.90
2023-02-03T00:43:58.664Z,99.20
2023-02-03T00:46:25.576Z,99.58
2023-02-03T00:48:52.402Z,99.31
2023-02-03T00:51:19.297Z,99.20
2023-02-03T00:53:46.178Z,99.37
2023-02-03T00:56:12.983Z,99.95
2023-02-03T00:58:40.955Z,100.00
2023-02-03T01:01:08.588Z,99.85
2023-02-03T01:03:35.747Z,100.00
2023-02-03T01:06:17.737Z,100.00
2023-02-03T01:08:44.900Z,99.92
2023-02-03T01:11:16.129Z,100.00
2023-02-03T01:13:43.761Z,100.00
2023-02-03T01:16:12.011Z,99.92
2023-02-03T01:18:39.688Z,100.00
2023-02-03T01:21:11.902Z,100.00
2023-02-03T01:23:39.234Z,100.00
2023-02-03T01:26:12.125Z,99.89
2023-02-03T01:28:39.525Z,99.98
2023-02-03T01:31:15.908Z,100.00
2023-02-03T01:33:43.558Z,100.00
2023-02-03T01:36:10.445Z,100.00
2023-02-03T01:38:38.359Z,100.00
2023-02-03T01:41:09.816Z,100.00
2023-02-03T01:43:42.945Z,100.00
2023-02-03T01:46:24.694Z,100.00
2023-02-03T01:48:54.567Z,100.00
2023-02-03T01:51:22.899Z,100.00
2023-02-03T01:53:51.895Z,100.00
2023-02-03T01:56:18.972Z,100.00
2023-02-03T01:58:47.737Z,100.00
2023-02-03T02:01:14.749Z,100.00
2023-02-03T02:03:51.044Z,100.00
2023-02-03T02:06:17.918Z,99.99
2023-02-03T02:08:48.598Z,100.00
2023-02-03T02:11:15.409Z,100.00
2023-02-03T02:13:44.405Z,100.00
2023-02-03T02:16:35.678Z,99.90
2023-02-03T02:19:40.871Z,100.00
2023-02-03T02:22:07.675Z,99.75
2023-02-03T02:25:02.317Z,99.43
2023-02-03T02:28:08.405Z,99.42
2023-02-03T02:31:07.042Z,99.25
2023-02-03T02:33:46.959Z,99.04
2023-02-03T02:36:40.265Z,99.01
2023-02-03T02:39:17.893Z,98.25
2023-02-03T02:41:56.870Z,98.40
2023-02-03T02:44:30.745Z,98.80
2023-02-03T02:47:02.619Z,99.11
2023-02-03T02:49:55.217Z,99.59
2023-02-03T02:52:24.253Z,99.71
2023-02-03T02:54:54.732Z,99.91
2023-02-03T02:57:24.109Z,99.75
2023-02-03T02:59:50.881Z,100.00
2023-02-03T03:02:17.850Z,100.00
2023-02-03T03:04:48.759Z,99.82
2023-02-03T03:07:24.557Z,100.00
2023-02-03T03:09:58.278Z,99.95
2023-02-03T03:12:30.864Z,100.00
2023-02-03T03:15:07.912Z,99.92
2023-02-03T03:17:40.261Z,99.97
2023-02-03T03:20:12.981Z,99.72
2023-02-03T03:22:47.656Z,99.47
2023-02-03T03:25:20.906Z,99.51
2023-02-03T03:28:01.698Z,99.24
2023-02-03T03:30:37.063Z,98.64
2023-02-03T03:33:04.979Z,98.71
2023-02-03T03:36:06.639Z,98.30
2023-02-03T03:38:42.956Z,98.14
2023-02-03T03:41:30.739Z,97.71
2023-02-03T03:44:03.403Z,97.41
2023-02-03T03:46:44.221Z,97.50
2023-02-03T03:49:13.093Z,97.33
2023-02-03T03:52:10.743Z,97.30
2023-02-03T03:54:40.566Z,97.42
2023-02-03T03:57:17.893Z,97.58
2023-02-03T03:59:49.205Z,97.05
2023-02-03T04:02:18.868Z,97.54
2023-02-03T04:04:48.448Z,97.42
2023-02-03T04:07:15.750Z,97.42
2023-02-03T04:09:42.751Z,96.63
2023-02-03T04:12:24.391Z,96.49
2023-02-03T04:14:51.217Z,96.39
2023-02-03T04:17:18.095Z,96.14
2023-02-03T04:19:44.873Z,95.94
2023-02-03T04:22:11.778Z,95.72
2023-02-03T04:24:38.593Z,95.40
2023-02-03T04:27:05.589Z,95.45
2023-02-03T04:29:32.540Z,95.21
2023-02-03T04:31:59.411Z,95.37
2023-02-03T04:34:26.377Z,94.72
2023-02-03T04:36:53.379Z,94.64
2023-02-03T04:39:20.235Z,94.82
2023-02-03T04:41:47.137Z,94.84
2023-02-03T04:44:13.949Z,94.54
2023-02-03T04:46:40.998Z,94.24
2023-02-03T04:49:07.841Z,93.89
2023-02-03T04:51:34.701Z,94.59
2023-02-03T04:54:01.656Z,94.14
2023-02-03T04:56:28.467Z,94.31
2023-02-03T04:58:55.347Z,93.95
2023-02-03T05:01:22.321Z,93.38
2023-02-03T05:03:49.217Z,93.52
2023-02-03T05:06:16.163Z,93.65
2023-02-03T05:08:42.980Z,93.25
2023-02-03T05:11:10.684Z,93.35
2023-02-03T05:13:37.605Z,93.12
2023-02-03T05:16:05.002Z,92.95
2023-02-03T05:18:31.822Z,92.40
2023-02-03T05:20:58.741Z,92.64
2023-02-03T05:23:25.591Z,92.23
2023-02-03T05:25:53.709Z,91.92
2023-02-03T05:28:20.685Z,92.14
2023-02-03T05:30:47.897Z,91.59
2023-02-03T05:33:15.104Z,91.59
2023-02-03T05:35:42.035Z,91.33
2023-02-03T05:38:08.975Z,90.68
2023-02-03T05:40:35.921Z,90.01
2023-02-03T05:43:03.809Z,88.52
2023-02-03T05:45:31.746Z,87.97
2023-02-03T05:47:58.655Z,87.10
2023-02-03T05:50:25.620Z,87.20
2023-02-03T05:52:52.706Z,86.76
2023-02-03T05:55:19.666Z,86.89
2023-02-03T05:57:46.539Z,86.26
2023-02-03T06:00:14.071Z,86.46
2023-02-03T06:02:41.082Z,85.34
2023-02-03T06:05:08.773Z,85.60
2023-02-03T06:07:35.719Z,86.04
2023-02-03T06:10:03.189Z,85.44
2023-02-03T06:12:29.991Z,85.08
2023-02-03T06:14:56.927Z,85.21
2023-02-03T06:17:23.966Z,84.39
2023-02-03T06:19:51.013Z,83.85
2023-02-03T06:22:17.816Z,83.53
2023-02-03T06:24:47.550Z,83.79
2023-02-03T06:27:15.410Z,83.88
2023-02-03T06:29:45.315Z,83.92
2023-02-03T06:32:15.220Z,84.35
2023-02-03T06:34:42.209Z,83.62
2023-02-03T06:37:09.217Z,83.87
2023-02-03T06:39:36.044Z,84.22
2023-02-03T06:42:03.122Z,83.64
2023-02-03T06:44:30.045Z,83.42
2023-02-03T06:46:56.951Z,83.23
2023-02-03T06:49:23.901Z,83.26
2023-02-03T06:51:51.238Z,82.53
2023-02-03T06:54:18.407Z,81.99
2023-02-03T06:56:48.811Z,82.57
2023-02-03T06:59:15.698Z,82.67
2023-02-03T07:01:42.684Z,81.99
2023-02-03T07:04:13.094Z,82.19
2023-02-03T07:06:39.934Z,82.43
2023-02-03T07:09:06.795Z,82.44
2023-02-03T07:11:33.824Z,82.43
2023-02-03T07:14:00.786Z,82.95
2023-02-03T07:16:27.711Z,83.46
2023-02-03T07:18:54.661Z,85.38
2023-02-03T07:21:21.463Z,87.52
2023-02-03T07:23:49.615Z,90.35
2023-02-03T07:26:17.742Z,92.38
2023-02-03T07:28:45.281Z,93.38
2023-02-03T07:31:12.257Z,94.58
2023-02-03T07:33:39.466Z,94.68
2023-02-03T07:36:07.486Z,94.16
2023-02-03T07:38:34.417Z,93.71
2023-02-03T07:41:01.272Z,94.12
2023-02-03T07:43:28.146Z,94.92
2023-02-03T07:45:54.952Z,95.41
2023-02-03T07:48:21.921Z,95.59
2023-02-03T07:50:49.146Z,94.72
2023-02-03T07:53:16.041Z,93.03
2023-02-03T07:55:43.506Z,91.84
2023-02-03T07:58:10.325Z,91.01
2023-02-03T08:00:37.444Z,90.34
2023-02-03T08:03:04.596Z,90.53
2023-02-03T08:05:31.481Z,90.44
2023-02-03T08:07:58.501Z,90.62
2023-02-03T08:10:25.821Z,89.08
2023-02-03T08:12:56.369Z,88.12
2023-02-03T08:15:23.553Z,88.42
2023-02-03T08:17:50.910Z,89.78
2023-02-03T08:20:18.268Z,89.74
2023-02-03T08:22:45.687Z,89.38
2023-02-03T08:25:12.957Z,89.09
2023-02-03T08:27:41.018Z,87.80
2023-02-03T08:30:10.306Z,88.27
2023-02-03T08:32:37.305Z,89.88
2023-02-03T08:35:04.453Z,90.19
2023-02-03T08:37:31.378Z,89.72
2023-02-03T08:39:59.023Z,90.24
2023-02-03T08:42:26.085Z,90.55
2023-02-03T08:44:55.174Z,89.85
2023-02-03T08:47:22.314Z,89.42
2023-02-03T08:49:52.249Z,89.18
2023-02-03T08:52:19.859Z,88.58
2023-02-03T08:54:47.840Z,88.78
2023-02-03T08:57:15.252Z,88.84
2023-02-03T08:59:45.138Z,88.80
2023-02-03T09:02:17.538Z,87.63
2023-02-03T09:04:46.059Z,87.03
2023-02-03T09:07:13.656Z,85.99
2023-02-03T09:09:40.537Z,86.34
2023-02-03T09:12:07.685Z,86.58
2023-02-03T09:14:34.730Z,85.36
2023-02-03T09:17:03.721Z,86.37
2023-02-03T09:19:34.246Z,86.01
2023-02-03T09:22:02.350Z,86.02
2023-02-03T09:24:29.452Z,86.05
2023-02-03T09:26:57.348Z,86.00
2023-02-03T09:29:24.506Z,86.85
2023-02-03T09:31:51.554Z,84.52
2023-02-03T09:34:19.845Z,84.83
2023-02-03T09:36:47.892Z,83.29
2023-02-03T09:39:15.413Z,83.22
2023-02-03T09:42:09.635Z,83.64
2023-02-03T09:44:51.626Z,82.37
2023-02-03T09:47:34.973Z,81.32
2023-02-03T09:50:05.791Z,80.25
2023-02-03T09:52:43.409Z,80.48
2023-02-03T09:55:48.107Z,79.77
2023-02-03T09:58:18.429Z,80.87
2023-02-03T10:00:48.255Z,79.83
2023-02-03T10:03:40.690Z,81.86
2023-02-03T10:06:14.291Z,80.64
2023-02-03T10:09:02.700Z,80.49
2023-02-03T10:12:00.654Z,81.92
2023-02-03T10:14:33.375Z,81.11
2023-02-03T10:17:31.197Z,81.26
2023-02-03T10:20:16.042Z,81.67
2023-02-03T10:22:53.791Z,81.87
2023-02-03T10:25:32.015Z,83.30
2023-02-03T10:28:03.727Z,83.68
2023-02-03T10:30:39.690Z,82.14
2023-02-03T10:33:15.113Z,83.39
2023-02-03T10:36:01.300Z,83.55
2023-02-03T10:38:58.067Z,82.80
2023-02-03T10:41:25.354Z,84.25
2023-02-03T10:43:53.348Z,84.84
2023-02-03T10:46:27.220Z,84.03
2023-02-03T10:48:54.522Z,85.37
2023-02-03T10:51:27.485Z,85.27
2023-02-03T10:53:54.489Z,85.36
2023-02-03T10:56:41.447Z,85.86
2023-02-03T10:59:30.072Z,85.23
2023-02-03T11:01:57.489Z,84.71
2023-02-03T11:04:33.013Z,84.89
2023-02-03T11:07:02.432Z,84.11
2023-02-03T11:09:33.688Z,84.02
2023-02-03T11:12:12.994Z,84.16
2023-02-03T11:14:43.133Z,83.21
2023-02-03T11:17:25.075Z,83.95
2023-02-03T11:19:59.106Z,83.73
2023-02-03T11:22:34.519Z,82.09
2023-02-03T11:25:03.763Z,83.11
2023-02-03T11:27:33.581Z,81.01
2023-02-03T11:30:27.163Z,80.75
2023-02-03T11:32:54.423Z,79.17
2023-02-03T11:35:30.024Z,79.74
2023-02-03T11:37:59.619Z,80.40
2023-02-03T11:40:33.138Z,81.03
2023-02-03T11:43:01.674Z,82.39
2023-02-03T11:45:43.171Z,81.39
2023-02-03T11:48:25.512Z,81.55
2023-02-03T11:51:16.892Z,80.38
2023-02-03T11:53:59.061Z,80.37
2023-02-03T11:56:49.594Z,81.45
2023-02-03T11:59:47.456Z,78.85
2023-02-03T12:02:59.286Z,77.48
2023-02-03T12:05:43.206Z,76.60
2023-02-03T12:08:22.993Z,78.29
2023-02-03T12:11:04.616Z,77.64
2023-02-03T12:14:00.163Z,77.56
2023-02-03T12:16:30.111Z,78.13
2023-02-03T12:19:06.915Z,76.63
2023-02-03T12:22:07.096Z,76.72
2023-02-03T12:24:44.594Z,75.84
2023-02-03T12:27:37.503Z,76.51
2023-02-03T12:30:20.400Z,78.07
2023-02-03T12:32:56.020Z,75.70
2023-02-03T12:35:33.802Z,75.60
2023-02-03T12:38:10.290Z,74.76
2023-02-03T12:40:55.727Z,76.03
2023-02-03T12:43:44.060Z,77.25
2023-02-03T12:46:21.537Z,75.25
2023-02-03T12:49:13.083Z,76.96
2023-02-03T12:51:50.004Z,75.73
2023-02-03T12:54:32.192Z,77.71
2023-02-03T12:57:16.117Z,76.20
2023-02-03T12:59:47.251Z,75.65
2023-02-03T13:02:25.061Z,75.59
2023-02-03T13:05:10.161Z,76.83
2023-02-03T13:07:46.861Z,76.43
2023-02-03T13:10:27.291Z,76.09
2023-02-03T13:12:58.331Z,76.21
2023-02-03T13:15:31.962Z,75.57
2023-02-03T13:18:14.252Z,75.91
2023-02-03T13:20:41.403Z,76.29
2023-02-03T13:23:13.090Z,77.90
2023-02-03T13:26:01.496Z,76.24
2023-02-03T13:28:28.193Z,77.00
2023-02-03T13:31:18.815Z,76.20
2023-02-03T13:33:58.525Z,75.92
2023-02-03T13:36:43.637Z,75.54
2023-02-03T13:39:35.853Z,74.91
2023-02-03T13:42:19.505Z,74.98
2023-02-03T13:44:49.768Z,74.19
2023-02-03T13:47:22.146Z,73.78
2023-02-03T13:49:59.940Z,72.70
2023-02-03T13:52:35.242Z,72.84
2023-02-03T13:55:03.660Z,73.80
2023-02-03T13:57:36.670Z,73.63
2023-02-03T14:00:28.447Z,73.65
2023-02-03T14:02:56.682Z,74.09
2023-02-03T14:05:56.507Z,73.66
2023-02-03T14:08:26.312Z,73.56
2023-02-03T14:11:30.809Z,73.04
2023-02-03T14:14:09.746Z,72.75
2023-02-03T14:16:41.739Z,72.18
2023-02-03T14:19:14.052Z,72.57
2023-02-03T14:21:48.379Z,71.97
2023-02-03T14:24:16.600Z,72.06
2023-02-03T14:26:50.328Z,71.59
2023-02-03T14:29:29.578Z,72.40
2023-02-03T14:32:05.818Z,72.82
2023-02-03T14:34:42.358Z,73.39
2023-02-03T14:37:31.041Z,73.32
2023-02-03T14:40:19.829Z,72.28
2023-02-03T14:43:22.200Z,72.58
2023-02-03T14:46:26.416Z,73.08
2023-02-03T14:49:30.568Z,72.96
2023-02-03T14:52:24.679Z,72.90
2023-02-03T14:55:17.456Z,73.09
2023-02-03T14:57:55.045Z,72.43
2023-02-03T15:00:21.898Z,73.17
2023-02-03T15:03:06.904Z,73.03
2023-02-03T15:05:35.766Z,73.06
2023-02-03T15:08:02.785Z,73.66
2023-02-03T15:10:46.032Z,73.59
2023-02-03T15:13:29.161Z,74.28
2023-02-03T15:16:04.920Z,75.03
2023-02-03T15:18:35.389Z,75.15
2023-02-03T15:21:03.045Z,76.35
2023-02-03T15:23:50.735Z,75.96
2023-02-03T15:26:21.774Z,75.42
2023-02-03T15:28:59.638Z,75.22
2023-02-03T15:31:40.806Z,76.88
2023-02-03T15:34:30.593Z,77.28
2023-02-03T15:37:01.137Z,76.28
2023-02-03T15:39:56.142Z,78.51
2023-02-03T15:42:30.707Z,77.73
2023-02-03T15:45:09.069Z,77.63
2023-02-03T15:47:41.970Z,77.58
2023-02-03T15:50:32.259Z,78.63
2023-02-03T15:53:05.165Z,80.28
2023-02-03T15:55:36.892Z,79.67
2023-02-03T15:58:03.966Z,79.03
2023-02-03T16:00:38.874Z,79.05
2023-02-03T16:03:17.279Z,76.96
2023-02-03T16:05:44.440Z,79.51
2023-02-03T16:08:37.674Z,82.26
2023-02-03T16:11:26.297Z,86.47
2023-02-03T16:13:54.371Z,87.40
2023-02-03T16:16:28.943Z,87.44
2023-02-03T16:19:01.911Z,87.92
2023-02-03T16:21:31.745Z,88.71
2023-02-03T16:23:59.601Z,89.89
2023-02-03T16:26:28.258Z,90.98
2023-02-03T16:29:04.511Z,92.56
2023-02-03T16:31:44.802Z,93.53
2023-02-03T16:34:19.480Z,94.56
2023-02-03T16:36:46.538Z,95.73
2023-02-03T16:39:13.612Z,95.63
2023-02-03T16:41:40.519Z,95.14
2023-02-03T16:44:11.591Z,94.29
2023-02-03T16:46:38.411Z,93.48
2023-02-03T16:49:05.383Z,92.53
2023-02-03T16:51:39.399Z,91.35
2023-02-03T16:54:09.916Z,90.68
2023-02-03T16:56:36.874Z,90.56
2023-02-03T16:59:04.060Z,91.04
2023-02-03T17:01:31.025Z,90.93
2023-02-03T17:03:58.203Z,90.86
2023-02-03T17:06:25.059Z,91.48
2023-02-03T17:08:51.927Z,91.78
2023-02-03T17:11:21.384Z,91.61
2023-02-03T17:13:49.275Z,91.31
2023-02-03T17:16:22.119Z,91.85
2023-02-03T17:18:49.575Z,92.58
2023-02-03T17:21:20.425Z,92.99
2023-02-03T17:23:47.887Z,93.27
2023-02-03T17:26:14.849Z,93.56
2023-02-03T17:28:42.109Z,94.25
2023-02-03T17:31:16.950Z,95.12
2023-02-03T17:33:45.924Z,95.30
2023-02-03T17:36:16.635Z,95.71
2023-02-03T17:55:12.293Z,96.67
2023-02-03T17:57:39.774Z,96.73
2023-02-03T18:00:07.794Z,96.83
2023-02-03T18:02:34.712Z,97.08
2023-02-03T18:05:01.850Z,97.29
2023-02-03T18:07:29.143Z,97.42
2023-02-03T18:09:56.062Z,96.48
2023-02-03T18:12:23.200Z,96.05
2023-02-03T18:14:50.077Z,96.05
2023-02-03T18:17:17.261Z,96.52
2023-02-03T18:19:46.802Z,95.88
2023-02-03T18:22:19.333Z,96.21
2023-02-03T18:24:46.255Z,95.95
2023-02-03T18:27:13.022Z,96.14
2023-02-03T18:29:39.867Z,96.51
2023-02-03T18:32:06.824Z,96.91
2023-02-03T18:34:33.744Z,97.62
2023-02-03T18:37:00.719Z,97.51
2023-02-03T18:39:33.478Z,97.70
2023-02-03T18:42:02.572Z,97.82
2023-02-03T18:44:29.605Z,97.76
2023-02-03T18:46:56.451Z,97.74
2023-02-03T18:49:23.598Z,98.19
2023-02-03T18:51:50.449Z,98.42
2023-02-03T18:54:17.399Z,98.42
2023-02-03T18:56:44.280Z,98.80
2023-02-03T18:59:11.559Z,98.75
2023-02-03T19:01:38.919Z,98.85
2023-02-03T19:04:06.544Z,98.91
2023-02-03T19:06:34.917Z,98.63
2023-02-03T19:09:02.964Z,98.64
2023-02-03T19:11:29.832Z,98.96
2023-02-03T19:13:56.745Z,98.99
2023-02-03T19:16:23.661Z,98.82
2023-02-03T19:18:50.555Z,99.08
2023-02-03T19:21:17.437Z,99.03
2023-02-03T19:23:44.816Z,99.11
2023-02-03T19:26:11.797Z,99.14
2023-02-03T19:28:40.484Z,99.25
2023-02-03T19:31:13.325Z,99.17
2023-02-03T19:33:40.374Z,99.27
2023-02-03T19:36:09.172Z,98.77
2023-02-03T19:38:36.606Z,99.09
2023-02-03T19:41:03.697Z,99.04
2023-02-03T19:43:31.781Z,98.70
2023-02-03T19:45:59.418Z,98.49
2023-02-03T19:48:26.526Z,98.74
2023-02-03T19:50:53.551Z,98.53
2023-02-03T19:53:20.704Z,98.71
2023-02-03T19:55:47.619Z,98.13
2023-02-03T19:58:15.064Z,98.72
2023-02-03T20:00:43.185Z,98.79
2023-02-03T20:03:10.792Z,97.96
2023-02-03T20:05:38.304Z,98.31
2023-02-03T20:08:05.917Z,98.81
2023-02-03T20:10:33.242Z,98.41
2023-02-03T20:13:00.792Z,98.63
2023-02-03T20:15:27.877Z,98.64
2023-02-03T20:17:54.927Z,98.55
2023-02-03T20:20:22.493Z,98.68
2023-02-03T20:22:50.100Z,98.76
2023-02-03T20:25:17.189Z,99.66
2023-02-03T20:27:44.294Z,100.00
2023-02-03T20:30:12.672Z,100.00
2023-02-03T20:32:40.131Z,100.00
2023-02-03T20:35:07.557Z,100.00
2023-02-03T20:37:34.858Z,100.00
2023-02-03T20:40:02.452Z,100.00
2023-02-03T20:42:29.401Z,100.00
2023-02-03T20:44:56.216Z,100.00
2023-02-03T20:47:23.174Z,100.00
2023-02-03T20:49:50.205Z,100.00
2023-02-03T20:52:20.472Z,100.00
2023-02-03T20:54:47.564Z,100.00
2023-02-03T20:57:17.049Z,99.93
2023-02-03T20:59:45.182Z,99.33
2023-02-03T21:02:30.465Z,99.19
2023-02-03T21:05:16.763Z,98.30
2023-02-03T21:07:43.924Z,97.62
2023-02-03T21:10:19.431Z,97.07
2023-02-03T21:12:46.793Z,97.19
2023-02-03T21:15:26.764Z,97.15
2023-02-03T21:17:56.448Z,96.99
2023-02-03T21:20:30.245Z,97.36
2023-02-03T21:22:58.294Z,97.20
2023-02-03T21:25:30.481Z,97.42
2023-02-03T21:27:59.646Z,97.57
2023-02-03T21:30:32.348Z,97.25
2023-02-03T21:32:59.448Z,97.53
2023-02-03T21:35:34.161Z,97.63
2023-02-03T21:38:02.991Z,97.87
2023-02-03T21:40:32.956Z,98.58
2023-02-03T21:43:01.600Z,97.89
2023-02-03T21:45:41.884Z,98.24
2023-02-03T21:48:25.717Z,98.36
2023-02-03T21:50:54.762Z,98.20
2023-02-03T21:53:30.470Z,98.20
2023-02-03T21:56:14.056Z,98.83
2023-02-03T21:58:41.110Z,98.93
2023-02-03T22:01:08.151Z,98.79
2023-02-03T22:03:40.003Z,99.28
2023-02-03T22:06:09.635Z,99.07
2023-02-03T22:08:38.578Z,99.32
2023-02-03T22:11:06.036Z,99.41
2023-02-03T22:13:33.169Z,100.00
2023-02-03T22:16:00.823Z,99.35
2023-02-03T22:18:27.809Z,99.63
2023-02-03T22:20:54.750Z,98.96
2023-02-03T22:23:21.588Z,99.01
2023-02-03T22:25:49.155Z,98.92
2023-02-03T22:28:16.136Z,98.79
2023-02-03T22:30:43.232Z,98.89
2023-02-03T22:33:10.145Z,98.57
2023-02-03T22:35:37.191Z,98.44
2023-02-03T22:38:04.065Z,98.65
2023-02-03T22:40:31.322Z,98.68
2023-02-03T22:42:58.300Z,98.85
2023-02-03T22:45:25.339Z,98.37
2023-02-03T22:47:52.219Z,98.86
2023-02-03T22:50:27.417Z,98.61
2023-02-03T22:53:01.618Z,98.95
2023-02-03T22:55:28.536Z,98.39
2023-02-03T22:57:55.322Z,98.60
2023-02-03T23:00:24.395Z,98.24
2023-02-03T23:02:51.689Z,98.36
2023-02-03T23:05:19.766Z,98.08
2023-02-03T23:07:47.536Z,97.92
2023-02-03T23:10:17.559Z,98.19
2023-02-03T23:12:45.079Z,97.91
2023-02-03T23:15:12.458Z,98.35
2023-02-03T23:17:39.428Z,98.23
2023-02-03T23:20:08.067Z,97.97
2023-02-03T23:22:35.306Z,98.01
2023-02-03T23:25:02.228Z,97.58
2023-02-03T23:27:29.506Z,97.21
2023-02-03T23:29:56.436Z,96.79
2023-02-03T23:32:23.806Z,97.09
2023-02-03T23:34:51.165Z,96.81
2023-02-03T23:37:18.012Z,96.74
2023-02-03T23:39:45.144Z,96.24
2023-02-03T23:42:12.021Z,95.75
2023-02-03T23:44:38.960Z,95.93
2023-02-03T23:47:05.872Z,96.21
2023-02-03T23:49:32.788Z,95.73
2023-02-03T23:51:59.722Z,95.75
2023-02-03T23:54:26.691Z,95.70
2023-02-03T23:56:53.568Z,95.58
2023-02-03T23:59:20.504Z,95.55
